sensor_id;sensor_type;location;lat;lon;timestamp;pressure;altitude;pressure_sealevel;temperature;humidity
9239;BME280;4654;43.242;27.976;2024-03-08T00:00:00;99224.81;;;6.55;nan
9239;BME280;4654;43.242;27.976;2024-03-08T00:02:35;99233.38;;;6.51;nan
9239;BME280;4654;43.242;27.976;2024-03-08T00:05:04;99224.72;;;6.45;nan
9239;BME280;4654;43.242;27.976;2024-03-08T00:07:32;99217.91;;;6.44;nan
9239;BME280;4654;43.242;27.976;2024-03-08T00:10:00;99224.22;;;6.48;nan
9239;BME280;4654;43.242;27.976;2024-03-08T00:12:27;99216.59;;;6.42;nan
9239;BME280;4654;43.242;27.976;2024-03-08T00:14:54;99196.81;;;6.24;nan
9239;BME280;4654;43.242;27.976;2024-03-08T00:17:21;99210.03;;;6.39;nan
9239;BME280;4654;43.242;27.976;2024-03-08T00:19:49;99203.28;;;6.43;nan
9239;BME280;4654;43.242;27.976;2024-03-08T00:22:16;99197.78;;;6.40;nan
9239;BME280;4654;43.242;27.976;2024-03-08T00:24:45;99202.75;;;6.41;nan
9239;BME280;4654;43.242;27.976;2024-03-08T00:27:12;99188.63;;;6.37;nan
9239;BME280;4654;43.242;27.976;2024-03-08T00:29:41;99182.59;;;6.37;nan
9239;BME280;4654;43.242;27.976;2024-03-08T00:32:08;99189.41;;;6.38;nan
9239;BME280;4654;43.242;27.976;2024-03-08T00:34:36;99173.69;;;6.33;nan
9239;BME280;4654;43.242;27.976;2024-03-08T00:37:04;99178.13;;;6.32;nan
9239;BME280;4654;43.242;27.976;2024-03-08T00:39:31;99185.97;;;6.32;nan
9239;BME280;4654;43.242;27.976;2024-03-08T00:42:00;99182.00;;;6.30;nan
9239;BME280;4654;43.242;27.976;2024-03-08T00:44:27;99183.84;;;6.29;nan
9239;BME280;4654;43.242;27.976;2024-03-08T00:46:54;99184.66;;;6.35;nan
9239;BME280;4654;43.242;27.976;2024-03-08T00:49:22;99186.19;;;6.31;nan
9239;BME280;4654;43.242;27.976;2024-03-08T00:51:49;99177.53;;;6.25;nan
9239;BME280;4654;43.242;27.976;2024-03-08T00:54:16;99178.84;;;6.28;nan
9239;BME280;4654;43.242;27.976;2024-03-08T00:56:43;99174.38;;;6.23;nan
9239;BME280;4654;43.242;27.976;2024-03-08T00:59:13;99176.19;;;6.23;nan
9239;BME280;4654;43.242;27.976;2024-03-08T01:01:40;99171.22;;;6.21;nan
9239;BME280;4654;43.242;27.976;2024-03-08T01:04:07;99181.41;;;6.23;nan
9239;BME280;4654;43.242;27.976;2024-03-08T01:06:34;99182.94;;;6.19;nan
9239;BME280;4654;43.242;27.976;2024-03-08T01:09:02;99179.28;;;6.20;nan
9239;BME280;4654;43.242;27.976;2024-03-08T01:11:32;99180.00;;;6.15;nan
9239;BME280;4654;43.242;27.976;2024-03-08T01:14:00;99173.22;;;6.14;nan
9239;BME280;4654;43.242;27.976;2024-03-08T01:16:28;99171.09;;;6.11;nan
9239;BME280;4654;43.242;27.976;2024-03-08T01:18:55;99171.41;;;6.15;nan
9239;BME280;4654;43.242;27.976;2024-03-08T01:21:23;99175.00;;;6.09;nan
9239;BME280;4654;43.242;27.976;2024-03-08T01:23:50;99168.91;;;6.03;nan
9239;BME280;4654;43.242;27.976;2024-03-08T01:26:17;99164.69;;;5.97;nan
9239;BME280;4654;43.242;27.976;2024-03-08T01:28:44;99164.69;;;5.97;nan
9239;BME280;4654;43.242;27.976;2024-03-08T01:31:11;99168.88;;;5.98;nan
9239;BME280;4654;43.242;27.976;2024-03-08T01:33:40;99167.13;;;6.04;nan
9239;BME280;4654;43.242;27.976;2024-03-08T01:36:08;99169.41;;;6.00;nan
9239;BME280;4654;43.242;27.976;2024-03-08T01:38:35;99174.06;;;5.98;nan
9239;BME280;4654;43.242;27.976;2024-03-08T01:41:02;99174.34;;;5.97;nan
9239;BME280;4654;43.242;27.976;2024-03-08T01:43:29;99178.97;;;5.95;nan
9239;BME280;4654;43.242;27.976;2024-03-08T01:45:58;99186.78;;;5.95;nan
9239;BME280;4654;43.242;27.976;2024-03-08T01:48:25;99174.34;;;5.97;nan
9239;BME280;4654;43.242;27.976;2024-03-08T01:50:55;99164.56;;;5.87;nan
9239;BME280;4654;43.242;27.976;2024-03-08T01:53:23;99178.53;;;5.98;nan
9239;BME280;4654;43.242;27.976;2024-03-08T01:55:54;99174.56;;;5.95;nan
9239;BME280;4654;43.242;27.976;2024-03-08T01:58:23;99176.38;;;5.95;nan
9239;BME280;4654;43.242;27.976;2024-03-08T02:00:52;99181.59;;;5.95;nan
9239;BME280;4654;43.242;27.976;2024-03-08T02:03:20;99176.63;;;5.93;nan
9239;BME280;4654;43.242;27.976;2024-03-08T02:05:48;99182.94;;;5.97;nan
9239;BME280;4654;43.242;27.976;2024-03-08T02:08:18;99178.16;;;5.89;nan
9239;BME280;4654;43.242;27.976;2024-03-08T02:10:48;99184.31;;;5.83;nan
9239;BME280;4654;43.242;27.976;2024-03-08T02:13:16;99183.28;;;5.84;nan
9239;BME280;4654;43.242;27.976;2024-03-08T02:15:54;99172.31;;;5.82;nan
9239;BME280;4654;43.242;27.976;2024-03-08T02:18:22;99174.38;;;5.81;nan
9239;BME280;4654;43.242;27.976;2024-03-08T02:20:51;99173.09;;;5.83;nan
9239;BME280;4654;43.242;27.976;2024-03-08T02:23:19;99177.53;;;5.82;nan
9239;BME280;4654;43.242;27.976;2024-03-08T02:25:46;99175.63;;;5.78;nan
9239;BME280;4654;43.242;27.976;2024-03-08T02:28:14;99172.94;;;5.73;nan
9239;BME280;4654;43.242;27.976;2024-03-08T02:30:41;99171.84;;;5.69;nan
9239;BME280;4654;43.242;27.976;2024-03-08T02:33:08;99178.88;;;5.69;nan
9239;BME280;4654;43.242;27.976;2024-03-08T02:35:36;99174.47;;;5.69;nan
9239;BME280;4654;43.242;27.976;2024-03-08T02:38:05;99175.00;;;5.71;nan
9239;BME280;4654;43.242;27.976;2024-03-08T02:40:32;99177.78;;;5.65;nan
9239;BME280;4654;43.242;27.976;2024-03-08T02:42:59;99178.88;;;5.69;nan
9239;BME280;4654;43.242;27.976;2024-03-08T02:45:26;99179.66;;;5.69;nan
9239;BME280;4654;43.242;27.976;2024-03-08T02:47:53;99181.25;;;5.70;nan
9239;BME280;4654;43.242;27.976;2024-03-08T02:50:23;99184.41;;;5.72;nan
9239;BME280;4654;43.242;27.976;2024-03-08T02:52:51;99192.69;;;5.69;nan
9239;BME280;4654;43.242;27.976;2024-03-08T02:55:19;99195.31;;;5.69;nan
9239;BME280;4654;43.242;27.976;2024-03-08T02:57:46;99185.66;;;5.70;nan
9239;BME280;4654;43.242;27.976;2024-03-08T03:00:14;99193.19;;;5.66;nan
9239;BME280;4654;43.242;27.976;2024-03-08T03:02:41;99187.47;;;5.69;nan
9239;BME280;4654;43.242;27.976;2024-03-08T03:05:09;99192.69;;;5.69;nan
9239;BME280;4654;43.242;27.976;2024-03-08T03:07:37;99182.28;;;5.69;nan
9239;BME280;4654;43.242;27.976;2024-03-08T03:10:05;99191.59;;;5.65;nan
9239;BME280;4654;43.242;27.976;2024-03-08T03:12:34;99190.50;;;5.61;nan
9239;BME280;4654;43.242;27.976;2024-03-08T03:15:01;99189.97;;;5.59;nan
9239;BME280;4654;43.242;27.976;2024-03-08T03:17:28;99185.03;;;5.63;nan
9239;BME280;4654;43.242;27.976;2024-03-08T03:19:55;99189.69;;;5.61;nan
9239;BME280;4654;43.242;27.976;2024-03-08T03:22:22;99186.25;;;5.55;nan
9239;BME280;4654;43.242;27.976;2024-03-08T03:24:51;99178.88;;;5.52;nan
9239;BME280;4654;43.242;27.976;2024-03-08T03:27:19;99178.34;;;5.50;nan
9239;BME280;4654;43.242;27.976;2024-03-08T03:29:47;99180.25;;;5.55;nan
9239;BME280;4654;43.242;27.976;2024-03-08T03:32:15;99174.72;;;5.51;nan
9239;BME280;4654;43.242;27.976;2024-03-08T03:34:44;99177.63;;;5.55;nan
9239;BME280;4654;43.242;27.976;2024-03-08T03:37:11;99183.66;;;5.55;nan
9239;BME280;4654;43.242;27.976;2024-03-08T03:39:39;99182.31;;;5.53;nan
9239;BME280;4654;43.242;27.976;2024-03-08T03:42:14;99185.44;;;5.55;nan
9239;BME280;4654;43.242;27.976;2024-03-08T03:44:43;99188.31;;;5.53;nan
9239;BME280;4654;43.242;27.976;2024-03-08T03:47:12;99193.44;;;5.48;nan
9239;BME280;4654;43.242;27.976;2024-03-08T03:49:40;99181.50;;;5.52;nan
9239;BME280;4654;43.242;27.976;2024-03-08T03:52:07;99180.66;;;5.47;nan
9239;BME280;4654;43.242;27.976;2024-03-08T03:54:34;99180.66;;;5.47;nan
9239;BME280;4654;43.242;27.976;2024-03-08T03:57:01;99184.84;;;5.48;nan
9239;BME280;4654;43.242;27.976;2024-03-08T03:59:29;99187.59;;;5.41;nan
9239;BME280;4654;43.242;27.976;2024-03-08T04:01:57;99191.56;;;5.44;nan
9239;BME280;4654;43.242;27.976;2024-03-08T04:04:26;99192.03;;;5.41;nan
9239;BME280;4654;43.242;27.976;2024-03-08T04:06:53;99188.41;;;5.42;nan
9239;BME280;4654;43.242;27.976;2024-03-08T04:09:20;99191.47;;;5.39;nan
9239;BME280;4654;43.242;27.976;2024-03-08T04:11:48;99194.78;;;5.34;nan
9239;BME280;4654;43.242;27.976;2024-03-08T04:14:18;99190.59;;;5.33;nan
9239;BME280;4654;43.242;27.976;2024-03-08T04:16:45;99191.97;;;5.36;nan
9239;BME280;4654;43.242;27.976;2024-03-08T04:19:14;99192.72;;;5.36;nan
9239;BME280;4654;43.242;27.976;2024-03-08T04:21:42;99188.06;;;5.38;nan
9239;BME280;4654;43.242;27.976;2024-03-08T04:24:10;99197.94;;;5.36;nan
9239;BME280;4654;43.242;27.976;2024-03-08T04:26:37;99199.22;;;5.34;nan
9239;BME280;4654;43.242;27.976;2024-03-08T04:29:04;99192.44;;;5.33;nan
9239;BME280;4654;43.242;27.976;2024-03-08T04:31:31;99189.91;;;5.38;nan
9239;BME280;4654;43.242;27.976;2024-03-08T04:33:58;99194.31;;;5.37;nan
9239;BME280;4654;43.242;27.976;2024-03-08T04:36:25;99184.31;;;5.29;nan
9239;BME280;4654;43.242;27.976;2024-03-08T04:38:55;99200.97;;;5.28;nan
9239;BME280;4654;43.242;27.976;2024-03-08T04:41:22;99200.47;;;5.31;nan
9239;BME280;4654;43.242;27.976;2024-03-08T04:43:50;99204.34;;;5.29;nan
9239;BME280;4654;43.242;27.976;2024-03-08T04:46:17;99200.41;;;5.26;nan
9239;BME280;4654;43.242;27.976;2024-03-08T04:48:45;99194.72;;;5.29;nan
9239;BME280;4654;43.242;27.976;2024-03-08T04:51:12;99195.75;;;5.28;nan
9239;BME280;4654;43.242;27.976;2024-03-08T04:53:39;99197.31;;;5.29;nan
9239;BME280;4654;43.242;27.976;2024-03-08T04:56:08;99205.63;;;5.26;nan
9239;BME280;4654;43.242;27.976;2024-03-08T04:58:36;99207.19;;;5.27;nan
9239;BME280;4654;43.242;27.976;2024-03-08T05:01:03;99199.66;;;5.31;nan
9239;BME280;4654;43.242;27.976;2024-03-08T05:03:31;99204.66;;;5.32;nan
9239;BME280;4654;43.242;27.976;2024-03-08T05:05:58;99213.50;;;5.31;nan
9239;BME280;4654;43.242;27.976;2024-03-08T05:08:25;99208.22;;;5.26;nan
9239;BME280;4654;43.242;27.976;2024-03-08T05:10:52;99215.31;;;5.31;nan
9239;BME280;4654;43.242;27.976;2024-03-08T05:13:21;99209.31;;;5.30;nan
9239;BME280;4654;43.242;27.976;2024-03-08T05:15:49;99210.97;;;5.36;nan
9239;BME280;4654;43.242;27.976;2024-03-08T05:18:16;99213.09;;;5.39;nan
9239;BME280;4654;43.242;27.976;2024-03-08T05:20:44;99216.50;;;5.40;nan
9239;BME280;4654;43.242;27.976;2024-03-08T05:23:11;99216.50;;;5.40;nan
9239;BME280;4654;43.242;27.976;2024-03-08T05:25:38;99225.56;;;5.37;nan
9239;BME280;4654;43.242;27.976;2024-03-08T05:28:07;99227.16;;;5.38;nan
9239;BME280;4654;43.242;27.976;2024-03-08T05:30:38;99234.25;;;5.43;nan
9239;BME280;4654;43.242;27.976;2024-03-08T05:33:05;99222.81;;;5.44;nan
9239;BME280;4654;43.242;27.976;2024-03-08T05:35:35;99223.78;;;5.38;nan
9239;BME280;4654;43.242;27.976;2024-03-08T05:38:03;99230.94;;;5.47;nan
9239;BME280;4654;43.242;27.976;2024-03-08T05:40:30;99230.78;;;5.54;nan
9239;BME280;4654;43.242;27.976;2024-03-08T05:42:58;99230.38;;;5.62;nan
9239;BME280;4654;43.242;27.976;2024-03-08T05:45:26;99233.78;;;5.62;nan
9239;BME280;4654;43.242;27.976;2024-03-08T05:47:54;99237.47;;;5.66;nan
9239;BME280;4654;43.242;27.976;2024-03-08T05:50:22;99239.34;;;5.71;nan
9239;BME280;4654;43.242;27.976;2024-03-08T05:52:49;99248.03;;;5.76;nan
9239;BME280;4654;43.242;27.976;2024-03-08T05:55:16;99240.81;;;5.78;nan
9239;BME280;4654;43.242;27.976;2024-03-08T05:57:43;99236.94;;;5.81;nan
9239;BME280;4654;43.242;27.976;2024-03-08T06:00:11;99238.03;;;5.84;nan
9239;BME280;4654;43.242;27.976;2024-03-08T06:02:41;99239.28;;;5.82;nan
9239;BME280;4654;43.242;27.976;2024-03-08T06:05:10;99240.94;;;5.88;nan
9239;BME280;4654;43.242;27.976;2024-03-08T06:07:38;99244.41;;;5.93;nan
9239;BME280;4654;43.242;27.976;2024-03-08T06:10:08;99252.72;;;5.90;nan
9239;BME280;4654;43.242;27.976;2024-03-08T06:12:36;99254.84;;;5.93;nan
9239;BME280;4654;43.242;27.976;2024-03-08T06:15:06;99264.25;;;5.94;nan
9239;BME280;4654;43.242;27.976;2024-03-08T06:17:34;99261.31;;;5.91;nan
9239;BME280;4654;43.242;27.976;2024-03-08T06:20:02;99267.06;;;5.93;nan
9239;BME280;4654;43.242;27.976;2024-03-08T06:22:37;99261.16;;;5.97;nan
9239;BME280;4654;43.242;27.976;2024-03-08T06:25:06;99259.09;;;5.99;nan
9239;BME280;4654;43.242;27.976;2024-03-08T06:27:34;99259.56;;;5.96;nan
9239;BME280;4654;43.242;27.976;2024-03-08T06:30:01;99265.34;;;5.98;nan
9239;BME280;4654;43.242;27.976;2024-03-08T06:32:30;99267.16;;;5.98;nan
9239;BME280;4654;43.242;27.976;2024-03-08T06:35:01;99264.38;;;6.04;nan
9239;BME280;4654;43.242;27.976;2024-03-08T06:37:28;99255.28;;;6.07;nan
9239;BME280;4654;43.242;27.976;2024-03-08T06:39:58;99270.19;;;6.11;nan
9239;BME280;4654;43.242;27.976;2024-03-08T06:42:26;99262.38;;;6.11;nan
9239;BME280;4654;43.242;27.976;2024-03-08T06:44:53;99266.81;;;6.11;nan
9239;BME280;4654;43.242;27.976;2024-03-08T06:47:25;99266.81;;;6.11;nan
9239;BME280;4654;43.242;27.976;2024-03-08T06:49:52;99261.81;;;6.09;nan
9239;BME280;4654;43.242;27.976;2024-03-08T06:52:19;99268.38;;;6.12;nan
9239;BME280;4654;43.242;27.976;2024-03-08T06:54:47;99269.16;;;6.12;nan
9239;BME280;4654;43.242;27.976;2024-03-08T06:57:16;99270.03;;;6.18;nan
9239;BME280;4654;43.242;27.976;2024-03-08T06:59:43;99267.97;;;6.20;nan
9239;BME280;4654;43.242;27.976;2024-03-08T07:02:10;99274.03;;;6.25;nan
9239;BME280;4654;43.242;27.976;2024-03-08T07:04:37;99276.66;;;6.25;nan
9239;BME280;4654;43.242;27.976;2024-03-08T07:07:05;99284.78;;;6.29;nan
9239;BME280;4654;43.242;27.976;2024-03-08T07:09:34;99279.81;;;6.27;nan
9239;BME280;4654;43.242;27.976;2024-03-08T07:12:01;99275.06;;;6.24;nan
9239;BME280;4654;43.242;27.976;2024-03-08T07:14:29;99276.34;;;6.22;nan
9239;BME280;4654;43.242;27.976;2024-03-08T07:16:56;99275.78;;;6.20;nan
9239;BME280;4654;43.242;27.976;2024-03-08T07:19:24;99274.59;;;6.27;nan
9239;BME280;4654;43.242;27.976;2024-03-08T07:21:51;99273.38;;;6.35;nan
9239;BME280;4654;43.242;27.976;2024-03-08T07:24:18;99274.94;;;6.36;nan
9239;BME280;4654;43.242;27.976;2024-03-08T07:27:03;99274.22;;;6.40;nan
9239;BME280;4654;43.242;27.976;2024-03-08T07:29:32;99281.50;;;6.38;nan
9239;BME280;4654;43.242;27.976;2024-03-08T07:31:59;99270.34;;;6.43;nan
9239;BME280;4654;43.242;27.976;2024-03-08T07:34:38;99271.69;;;6.45;nan
9239;BME280;4654;43.242;27.976;2024-03-08T07:37:06;99274.06;;;6.47;nan
9239;BME280;4654;43.242;27.976;2024-03-08T07:39:37;99271.50;;;6.52;nan
9239;BME280;4654;43.242;27.976;2024-03-08T07:42:05;99274.59;;;6.49;nan
9239;BME280;4654;43.242;27.976;2024-03-08T07:44:34;99272.91;;;6.59;nan
9239;BME280;4654;43.242;27.976;2024-03-08T07:47:01;99279.69;;;6.60;nan
9239;BME280;4654;43.242;27.976;2024-03-08T07:49:29;99266.03;;;6.53;nan
9239;BME280;4654;43.242;27.976;2024-03-08T07:51:56;99275.84;;;6.68;nan
9239;BME280;4654;43.242;27.976;2024-03-08T07:54:24;99276.16;;;6.71;nan
9239;BME280;4654;43.242;27.976;2024-03-08T07:56:52;99276.25;;;6.81;nan
9239;BME280;4654;43.242;27.976;2024-03-08T07:59:19;99273.97;;;6.85;nan
9239;BME280;4654;43.242;27.976;2024-03-08T08:01:48;99272.06;;;6.80;nan
9239;BME280;4654;43.242;27.976;2024-03-08T08:04:15;99270.06;;;6.87;nan
9239;BME280;4654;43.242;27.976;2024-03-08T08:06:43;99277.13;;;6.87;nan
9239;BME280;4654;43.242;27.976;2024-03-08T08:09:11;99277.94;;;6.92;nan
9239;BME280;4654;43.242;27.976;2024-03-08T08:11:40;99276.19;;;6.98;nan
9239;BME280;4654;43.242;27.976;2024-03-08T08:14:09;99279.34;;;7.00;nan
9239;BME280;4654;43.242;27.976;2024-03-08T08:16:36;99274.06;;;6.95;nan
9239;BME280;4654;43.242;27.976;2024-03-08T08:19:05;99275.63;;;6.96;nan
9239;BME280;4654;43.242;27.976;2024-03-08T08:21:34;99279.28;;;6.95;nan
9239;BME280;4654;43.242;27.976;2024-03-08T08:24:02;99280.06;;;6.95;nan
9239;BME280;4654;43.242;27.976;2024-03-08T08:26:30;99279.28;;;6.95;nan
9239;BME280;4654;43.242;27.976;2024-03-08T08:28:58;99281.94;;;7.00;nan
9239;BME280;4654;43.242;27.976;2024-03-08T08:31:26;99280.09;;;7.00;nan
9239;BME280;4654;43.242;27.976;2024-03-08T08:33:53;99284.28;;;7.01;nan
9239;BME280;4654;43.242;27.976;2024-03-08T08:36:25;99280.69;;;7.02;nan
9239;BME280;4654;43.242;27.976;2024-03-08T08:38:55;99260.47;;;6.93;nan
9239;BME280;4654;43.242;27.976;2024-03-08T08:41:24;99284.38;;;7.06;nan
9239;BME280;4654;43.242;27.976;2024-03-08T08:43:51;99289.09;;;7.09;nan
9239;BME280;4654;43.242;27.976;2024-03-08T08:46:18;99286.91;;;7.01;nan
9239;BME280;4654;43.242;27.976;2024-03-08T08:48:47;99283.06;;;7.09;nan
9239;BME280;4654;43.242;27.976;2024-03-08T08:51:14;99261.22;;;6.93;nan
9239;BME280;4654;43.242;27.976;2024-03-08T08:53:43;99285.41;;;7.05;nan
9239;BME280;4654;43.242;27.976;2024-03-08T08:56:12;99284.56;;;7.00;nan
9239;BME280;4654;43.242;27.976;2024-03-08T08:58:39;99292.38;;;7.00;nan
9239;BME280;4654;43.242;27.976;2024-03-08T09:01:08;99288.78;;;7.06;nan
9239;BME280;4654;43.242;27.976;2024-03-08T09:03:35;99293.97;;;7.01;nan
9239;BME280;4654;43.242;27.976;2024-03-08T09:06:03;99291.91;;;7.03;nan
9239;BME280;4654;43.242;27.976;2024-03-08T09:08:30;99295.00;;;7.00;nan
9239;BME280;4654;43.242;27.976;2024-03-08T09:10:59;99284.09;;;7.08;nan
9239;BME280;4654;43.242;27.976;2024-03-08T09:13:26;99294.31;;;7.09;nan
9239;BME280;4654;43.242;27.976;2024-03-08T09:15:53;99288.59;;;7.12;nan
9239;BME280;4654;43.242;27.976;2024-03-08T09:18:21;99300.91;;;7.17;nan
9239;BME280;4654;43.242;27.976;2024-03-08T09:20:49;99294.59;;;7.13;nan
9239;BME280;4654;43.242;27.976;2024-03-08T09:23:19;99288.84;;;7.11;nan
9239;BME280;4654;43.242;27.976;2024-03-08T09:25:47;99294.38;;;7.14;nan
9239;BME280;4654;43.242;27.976;2024-03-08T09:28:15;99297.47;;;7.11;nan
9239;BME280;4654;43.242;27.976;2024-03-08T09:30:43;99298.84;;;7.19;nan
9239;BME280;4654;43.242;27.976;2024-03-08T09:33:10;99298.41;;;7.27;nan
9239;BME280;4654;43.242;27.976;2024-03-08T09:35:37;99301.53;;;7.24;nan
9239;BME280;4654;43.242;27.976;2024-03-08T09:38:04;99300.22;;;7.26;nan
9239;BME280;4654;43.242;27.976;2024-03-08T09:40:34;99295.03;;;7.31;nan
9239;BME280;4654;43.242;27.976;2024-03-08T09:43:01;99297.72;;;7.41;nan
9239;BME280;4654;43.242;27.976;2024-03-08T09:45:32;99303.75;;;7.41;nan
9239;BME280;4654;43.242;27.976;2024-03-08T09:48:02;99299.38;;;7.47;nan
9239;BME280;4654;43.242;27.976;2024-03-08T09:50:29;99303.59;;;7.53;nan
9239;BME280;4654;43.242;27.976;2024-03-08T09:52:56;99298.69;;;7.61;nan
9239;BME280;4654;43.242;27.976;2024-03-08T09:55:25;99294.25;;;7.62;nan
9239;BME280;4654;43.242;27.976;2024-03-08T09:57:58;99294.00;;;7.63;nan
9239;BME280;4654;43.242;27.976;2024-03-08T10:00:46;99290.91;;;7.66;nan
9239;BME280;4654;43.242;27.976;2024-03-08T10:03:13;99299.09;;;7.80;nan
9239;BME280;4654;43.242;27.976;2024-03-08T10:05:41;99287.34;;;7.82;nan
9239;BME280;4654;43.242;27.976;2024-03-08T10:08:10;99291.38;;;8.00;nan
9239;BME280;4654;43.242;27.976;2024-03-08T10:10:37;99275.88;;;7.88;nan
9239;BME280;4654;43.242;27.976;2024-03-08T10:13:06;99291.22;;;8.16;nan
9239;BME280;4654;43.242;27.976;2024-03-08T10:15:33;99296.00;;;8.24;nan
9239;BME280;4654;43.242;27.976;2024-03-08T10:18:02;99291.34;;;8.36;nan
9239;BME280;4654;43.242;27.976;2024-03-08T10:20:30;99285.41;;;8.51;nan
9239;BME280;4654;43.242;27.976;2024-03-08T10:22:59;99287.53;;;8.59;nan
9239;BME280;4654;43.242;27.976;2024-03-08T10:25:26;99297.25;;;8.63;nan
9239;BME280;4654;43.242;27.976;2024-03-08T10:27:53;99285.97;;;8.63;nan
9239;BME280;4654;43.242;27.976;2024-03-08T10:30:22;99285.44;;;8.66;nan
9239;BME280;4654;43.242;27.976;2024-03-08T10:32:49;99293.06;;;8.67;nan
9239;BME280;4654;43.242;27.976;2024-03-08T10:35:18;99290.47;;;8.72;nan
9239;BME280;4654;43.242;27.976;2024-03-08T10:37:47;99287.56;;;8.69;nan
9239;BME280;4654;43.242;27.976;2024-03-08T10:40:17;99295.38;;;8.64;nan
9239;BME280;4654;43.242;27.976;2024-03-08T10:42:52;99295.88;;;8.56;nan
9239;BME280;4654;43.242;27.976;2024-03-08T10:45:26;99293.47;;;8.39;nan
9239;BME280;4654;43.242;27.976;2024-03-08T10:48:15;99290.31;;;8.42;nan
9239;BME280;4654;43.242;27.976;2024-03-08T10:50:49;99297.13;;;8.43;nan
9239;BME280;4654;43.242;27.976;2024-03-08T10:53:19;99286.94;;;8.42;nan
9239;BME280;4654;43.242;27.976;2024-03-08T10:55:47;99292.69;;;8.39;nan
9239;BME280;4654;43.242;27.976;2024-03-08T10:58:20;99296.34;;;8.38;nan
9239;BME280;4654;43.242;27.976;2024-03-08T11:00:48;99291.91;;;8.43;nan
9239;BME280;4654;43.242;27.976;2024-03-08T11:03:44;99286.81;;;8.22;nan
9239;BME280;4654;43.242;27.976;2024-03-08T11:06:16;99289.72;;;8.20;nan
9239;BME280;4654;43.242;27.976;2024-03-08T11:08:47;99287.63;;;8.22;nan
9239;BME280;4654;43.242;27.976;2024-03-08T11:11:26;99280.81;;;8.21;nan
9239;BME280;4654;43.242;27.976;2024-03-08T11:13:55;99293.38;;;8.19;nan
9239;BME280;4654;43.242;27.976;2024-03-08T11:16:39;99282.31;;;8.12;nan
9239;BME280;4654;43.242;27.976;2024-03-08T11:19:26;99290.09;;;8.07;nan
9239;BME280;4654;43.242;27.976;2024-03-08T11:22:02;99278.88;;;8.07;nan
9239;BME280;4654;43.242;27.976;2024-03-08T11:24:37;99287.78;;;8.11;nan
9239;BME280;4654;43.242;27.976;2024-03-08T11:27:06;99284.09;;;8.07;nan
9239;BME280;4654;43.242;27.976;2024-03-08T11:29:38;99284.59;;;8.04;nan
9239;BME280;4654;43.242;27.976;2024-03-08T11:32:10;99287.19;;;7.99;nan
9239;BME280;4654;43.242;27.976;2024-03-08T11:34:40;99283.53;;;7.95;nan
9239;BME280;4654;43.242;27.976;2024-03-08T11:37:13;99280.41;;;7.98;nan
9239;BME280;4654;43.242;27.976;2024-03-08T11:39:41;99269.94;;;7.98;nan
9239;BME280;4654;43.242;27.976;2024-03-08T11:42:14;99279.38;;;8.04;nan
9239;BME280;4654;43.242;27.976;2024-03-08T11:44:43;99280.69;;;8.06;nan
9239;BME280;4654;43.242;27.976;2024-03-08T11:47:10;99280.94;;;8.05;nan
9239;BME280;4654;43.242;27.976;2024-03-08T11:49:38;99276.78;;;8.09;nan
9239;BME280;4654;43.242;27.976;2024-03-08T11:52:12;99274.25;;;8.19;nan
9239;BME280;4654;43.242;27.976;2024-03-08T11:54:40;99273.56;;;8.38;nan
9239;BME280;4654;43.242;27.976;2024-03-08T11:57:07;99272.59;;;8.54;nan
9239;BME280;4654;43.242;27.976;2024-03-08T11:59:35;99274.22;;;8.70;nan
9239;BME280;4654;43.242;27.976;2024-03-08T12:02:04;99271.88;;;8.74;nan
9239;BME280;4654;43.242;27.976;2024-03-08T12:04:31;99269.53;;;8.92;nan
9239;BME280;4654;43.242;27.976;2024-03-08T12:07:02;99265.09;;;8.87;nan
9239;BME280;4654;43.242;27.976;2024-03-08T12:09:36;99268.25;;;8.94;nan
9239;BME280;4654;43.242;27.976;2024-03-08T12:12:03;99267.44;;;8.89;nan
9239;BME280;4654;43.242;27.976;2024-03-08T12:14:31;99267.41;;;8.79;nan
9239;BME280;4654;43.242;27.976;2024-03-08T12:16:58;99266.59;;;8.64;nan
9239;BME280;4654;43.242;27.976;2024-03-08T12:19:27;99273.84;;;8.42;nan
9239;BME280;4654;43.242;27.976;2024-03-08T12:21:54;99273.53;;;8.33;nan
9239;BME280;4654;43.242;27.976;2024-03-08T12:24:21;99275.91;;;8.30;nan
9239;BME280;4654;43.242;27.976;2024-03-08T12:26:50;99275.59;;;8.26;nan
9239;BME280;4654;43.242;27.976;2024-03-08T12:29:19;99280.75;;;8.16;nan
9239;BME280;4654;43.242;27.976;2024-03-08T12:31:51;99270.00;;;8.13;nan
9239;BME280;4654;43.242;27.976;2024-03-08T12:34:19;99275.25;;;8.13;nan
9239;BME280;4654;43.242;27.976;2024-03-08T12:36:47;99272.91;;;8.16;nan
9239;BME280;4654;43.242;27.976;2024-03-08T12:39:16;99275.25;;;8.13;nan
9239;BME280;4654;43.242;27.976;2024-03-08T12:41:49;99282.81;;;8.09;nan
9239;BME280;4654;43.242;27.976;2024-03-08T12:44:17;99276.50;;;8.05;nan
9239;BME280;4654;43.242;27.976;2024-03-08T12:46:45;99280.63;;;7.96;nan
9239;BME280;4654;43.242;27.976;2024-03-08T12:49:12;99275.41;;;7.96;nan
9239;BME280;4654;43.242;27.976;2024-03-08T12:51:43;99274.09;;;7.94;nan
9239;BME280;4654;43.242;27.976;2024-03-08T12:54:10;99274.06;;;7.89;nan
9239;BME280;4654;43.242;27.976;2024-03-08T12:56:38;99280.28;;;7.83;nan
9239;BME280;4654;43.242;27.976;2024-03-08T12:59:07;99272.97;;;7.85;nan
9239;BME280;4654;43.242;27.976;2024-03-08T13:01:35;99268.53;;;7.85;nan
9239;BME280;4654;43.242;27.976;2024-03-08T13:04:04;99272.66;;;7.76;nan
9239;BME280;4654;43.242;27.976;2024-03-08T13:06:32;99273.38;;;7.67;nan
9239;BME280;4654;43.242;27.976;2024-03-08T13:09:00;99273.88;;;7.64;nan
9239;BME280;4654;43.242;27.976;2024-03-08T13:11:31;99278.28;;;7.58;nan
9239;BME280;4654;43.242;27.976;2024-03-08T13:14:03;99274.28;;;7.46;nan
9239;BME280;4654;43.242;27.976;2024-03-08T13:16:32;99268.75;;;7.42;nan
9239;BME280;4654;43.242;27.976;2024-03-08T13:19:00;99272.41;;;7.41;nan
9239;BME280;4654;43.242;27.976;2024-03-08T13:21:27;99270.31;;;7.43;nan
9239;BME280;4654;43.242;27.976;2024-03-08T13:23:55;99280.75;;;7.38;nan
9239;BME280;4654;43.242;27.976;2024-03-08T13:26:24;99281.00;;;7.42;nan
9239;BME280;4654;43.242;27.976;2024-03-08T13:28:58;99281.56;;;7.44;nan
9239;BME280;4654;43.242;27.976;2024-03-08T13:31:25;99272.38;;;7.36;nan
9239;BME280;4654;43.242;27.976;2024-03-08T13:33:54;99282.56;;;7.38;nan
9239;BME280;4654;43.242;27.976;2024-03-08T13:36:24;99287.47;;;7.29;nan
9239;BME280;4654;43.242;27.976;2024-03-08T13:38:55;99285.56;;;7.25;nan
9239;BME280;4654;43.242;27.976;2024-03-08T13:41:24;99279.72;;;7.13;nan
9239;BME280;4654;43.242;27.976;2024-03-08T13:43:52;99296.28;;;7.24;nan
9239;BME280;4654;43.242;27.976;2024-03-08T13:46:21;99293.69;;;7.24;nan
9239;BME280;4654;43.242;27.976;2024-03-08T13:48:49;99293.97;;;7.27;nan
9239;BME280;4654;43.242;27.976;2024-03-08T13:51:18;99289.47;;;7.22;nan